sensor_id;sensor_type;location;lat;lon;timestamp;pressure;altitude;pressure_sealevel;temperature;humidity
5703;BME280;2876;51.738;10.050;2023-03-03T00:04:19;99929.75;;;1.60;96.02
5703;BME280;2876;51.738;10.050;2023-03-03T00:10:20;99914.84;;;1.59;94.91
5703;BME280;2876;51.738;10.050;2023-03-03T00:22:30;99899.75;;;1.50;95.87
5703;BME280;2876;51.738;10.050;2023-03-03T00:28:50;99896.38;;;1.48;95.53
5703;BME280;2876;51.738;10.050;2023-03-03T00:34:55;99921.47;;;1.53;95.14
5703;BME280;2876;51.738;10.050;2023-03-03T00:41:01;99928.19;;;1.25;95.85
5703;BME280;2876;51.738;10.050;2023-03-03T00:47:36;99932.19;;;1.09;95.83
5703;BME280;2876;51.738;10.050;2023-03-03T00:53:39;99939.25;;;1.19;96.74
5703;BME280;2876;51.738;10.050;2023-03-03T00:59:41;99919.19;;;1.17;96.62
5703;BME280;2876;51.738;10.050;2023-03-03T01:05:43;99915.81;;;1.26;95.74
5703;BME280;2876;51.738;10.050;2023-03-03T01:11:45;99901.66;;;1.48;95.15
5703;BME280;2876;51.738;10.050;2023-03-03T01:17:47;99899.75;;;1.18;95.81
5703;BME280;2876;51.738;10.050;2023-03-03T01:23:49;99897.09;;;1.18;96.23
5703;BME280;2876;51.738;10.050;2023-03-03T01:29:51;99896.53;;;1.14;95.68
5703;BME280;2876;51.738;10.050;2023-03-03T01:35:53;99898.13;;;1.06;95.71
5703;BME280;2876;51.738;10.050;2023-03-03T01:41:55;99912.53;;;1.01;96.04
5703;BME280;2876;51.738;10.050;2023-03-03T01:48:17;99907.47;;;1.10;96.25
5703;BME280;2876;51.738;10.050;2023-03-03T01:54:29;99895.09;;;1.10;95.93
5703;BME280;2876;51.738;10.050;2023-03-03T02:00:32;99914.66;;;1.08;96.86
5703;BME280;2876;51.738;10.050;2023-03-03T02:06:39;99924.03;;;1.12;96.59
5703;BME280;2876;51.738;10.050;2023-03-03T02:12:50;99922.25;;;1.01;96.45
5703;BME280;2876;51.738;10.050;2023-03-03T02:18:53;99921.66;;;0.97;97.18
5703;BME280;2876;51.738;10.050;2023-03-03T02:25:01;99914.25;;;0.91;97.89
5703;BME280;2876;51.738;10.050;2023-03-03T02:31:09;99912.72;;;0.66;98.46
5703;BME280;2876;51.738;10.050;2023-03-03T02:37:15;99914.13;;;0.82;98.90
5703;BME280;2876;51.738;10.050;2023-03-03T02:43:20;99917.38;;;0.74;98.13
5703;BME280;2876;51.738;10.050;2023-03-03T02:49:29;99914.63;;;0.75;98.04
5703;BME280;2876;51.738;10.050;2023-03-03T02:55:32;99909.47;;;0.63;98.69
5703;BME280;2876;51.738;10.050;2023-03-03T03:01:35;99904.47;;;0.60;98.48
5703;BME280;2876;51.738;10.050;2023-03-03T03:07:37;99903.97;;;0.55;98.74
5703;BME280;2876;51.738;10.050;2023-03-03T03:13:39;99899.78;;;0.52;98.54
5703;BME280;2876;51.738;10.050;2023-03-03T03:19:41;99899.78;;;0.52;98.99
5703;BME280;2876;51.738;10.050;2023-03-03T03:25:43;99904.44;;;0.48;98.59
5703;BME280;2876;51.738;10.050;2023-03-03T03:31:48;99910.47;;;0.50;98.84
5703;BME280;2876;51.738;10.050;2023-03-03T03:37:50;99906.75;;;0.42;99.22
5703;BME280;2876;51.738;10.050;2023-03-03T03:43:52;99910.34;;;0.18;99.85
5703;BME280;2876;51.738;10.050;2023-03-03T03:49:54;99915.13;;;0.36;100.00
5703;BME280;2876;51.738;10.050;2023-03-03T03:55:57;99918.13;;;0.42;100.00
5703;BME280;2876;51.738;10.050;2023-03-03T04:01:59;99928.06;;;0.39;99.90
5703;BME280;2876;51.738;10.050;2023-03-03T04:08:01;99926.28;;;0.39;99.49
5703;BME280;2876;51.738;10.050;2023-03-03T04:14:03;99929.38;;;0.44;99.13
5703;BME280;2876;51.738;10.050;2023-03-03T04:20:06;99937.94;;;0.37;100.00
5703;BME280;2876;51.738;10.050;2023-03-03T04:26:09;99927.97;;;0.29;99.14
5703;BME280;2876;51.738;10.050;2023-03-03T04:32:11;99916.81;;;0.25;99.89
5703;BME280;2876;51.738;10.050;2023-03-03T04:38:13;99918.81;;;0.22;100.00
5703;BME280;2876;51.738;10.050;2023-03-03T04:44:15;99922.91;;;0.15;100.00
5703;BME280;2876;51.738;10.050;2023-03-03T04:50:17;99916.56;;;0.40;99.88
5703;BME280;2876;51.738;10.050;2023-03-03T04:56:19;99940.66;;;0.24;98.79
5703;BME280;2876;51.738;10.050;2023-03-03T05:02:21;99939.56;;;0.15;99.52
5703;BME280;2876;51.738;10.050;2023-03-03T05:08:23;99942.34;;;0.14;100.00
5703;BME280;2876;51.738;10.050;2023-03-03T05:14:26;99947.63;;;0.14;100.00
5703;BME280;2876;51.738;10.050;2023-03-03T05:20:28;99950.72;;;0.19;100.00
5703;BME280;2876;51.738;10.050;2023-03-03T05:26:30;99947.47;;;0.27;100.00
5703;BME280;2876;51.738;10.050;2023-03-03T05:32:32;99949.66;;;0.33;100.00
5703;BME280;2876;51.738;10.050;2023-03-03T05:38:34;99959.84;;;0.15;100.00
5703;BME280;2876;51.738;10.050;2023-03-03T05:44:36;99968.94;;;0.22;100.00
5703;BME280;2876;51.738;10.050;2023-03-03T05:50:38;99971.66;;;-0.02;100.00
5703;BME280;2876;51.738;10.050;2023-03-03T05:56:40;99975.78;;;0.24;100.00
5703;BME280;2876;51.738;10.050;2023-03-03T06:02:44;99967.97;;;0.12;100.00
5703;BME280;2876;51.738;10.050;2023-03-03T06:08:46;99961.28;;;0.19;99.86
5703;BME280;2876;51.738;10.050;2023-03-03T06:14:48;99974.22;;;0.11;100.00
5703;BME280;2876;51.738;10.050;2023-03-03T06:20:53;99975.41;;;0.18;100.00
5703;BME280;2876;51.738;10.050;2023-03-03T06:26:57;99971.72;;;0.20;99.95
5703;BME280;2876;51.738;10.050;2023-03-03T06:32:59;99969.06;;;0.20;100.00
5703;BME280;2876;51.738;10.050;2023-03-03T06:39:01;99975.44;;;0.40;100.00
5703;BME280;2876;51.738;10.050;2023-03-03T06:45:04;99977.59;;;0.35;99.78
5703;BME280;2876;51.738;10.050;2023-03-03T06:51:23;99980.59;;;0.53;99.38
5703;BME280;2876;51.738;10.050;2023-03-03T06:57:32;99988.06;;;0.59;98.93
5703;BME280;2876;51.738;10.050;2023-03-03T07:03:34;100004.94;;;0.68;99.37
5703;BME280;2876;51.738;10.050;2023-03-03T07:09:36;100022.00;;;0.64;99.55
5703;BME280;2876;51.738;10.050;2023-03-03T07:15:38;100038.06;;;0.72;98.98
5703;BME280;2876;51.738;10.050;2023-03-03T07:21:40;100035.22;;;0.75;98.69
5703;BME280;2876;51.738;10.050;2023-03-03T07:27:42;100029.09;;;0.97;97.42
5703;BME280;2876;51.738;10.050;2023-03-03T07:33:44;100025.34;;;0.77;97.41
5703;BME280;2876;51.738;10.050;2023-03-03T07:39:49;100038.81;;;0.85;98.10
5703;BME280;2876;51.738;10.050;2023-03-03T07:45:51;100042.53;;;1.05;96.81
5703;BME280;2876;51.738;10.050;2023-03-03T07:51:56;100055.00;;;1.03;96.79
5703;BME280;2876;51.738;10.050;2023-03-03T08:04:38;100056.09;;;1.23;95.82
5703;BME280;2876;51.738;10.050;2023-03-03T08:11:02;100060.38;;;1.46;94.64
5703;BME280;2876;51.738;10.050;2023-03-03T08:17:34;100067.97;;;1.29;95.25
5703;BME280;2876;51.738;10.050;2023-03-03T08:23:36;100066.03;;;1.42;94.82
5703;BME280;2876;51.738;10.050;2023-03-03T08:29:38;100075.81;;;1.62;94.45
5703;BME280;2876;51.738;10.050;2023-03-03T08:35:41;100071.84;;;1.68;93.18
5703;BME280;2876;51.738;10.050;2023-03-03T08:41:43;100066.69;;;1.66;93.54
5703;BME280;2876;51.738;10.050;2023-03-03T08:47:46;100063.59;;;1.93;91.99
5703;BME280;2876;51.738;10.050;2023-03-03T08:53:48;100077.66;;;1.94;90.79
5703;BME280;2876;51.738;10.050;2023-03-03T08:59:50;100082.03;;;1.84;90.51
5703;BME280;2876;51.738;10.050;2023-03-03T09:05:52;100086.47;;;2.15;90.16
5703;BME280;2876;51.738;10.050;2023-03-03T09:12:01;100095.00;;;2.19;90.46
5703;BME280;2876;51.738;10.050;2023-03-03T09:24:30;100096.31;;;2.24;90.39
5703;BME280;2876;51.738;10.050;2023-03-03T09:30:40;100102.19;;;2.28;88.20
5703;BME280;2876;51.738;10.050;2023-03-03T09:36:51;100107.25;;;2.20;89.15
5703;BME280;2876;51.738;10.050;2023-03-03T09:43:28;100100.47;;;2.27;89.86
5703;BME280;2876;51.738;10.050;2023-03-03T09:56:24;100101.78;;;2.53;88.13
5703;BME280;2876;51.738;10.050;2023-03-03T10:02:56;100102.00;;;2.62;87.02
5703;BME280;2876;51.738;10.050;2023-03-03T10:22:39;100103.41;;;2.66;87.40
5703;BME280;2876;51.738;10.050;2023-03-03T11:40:29;100100.97;;;2.74;86.77
5703;BME280;2876;51.738;10.050;2023-03-03T11:47:02;100100.59;;;3.09;87.43
5703;BME280;2876;51.738;10.050;2023-03-03T11:54:04;100097.09;;;3.39;85.69
5703;BME280;2876;51.738;10.050;2023-03-03T12:00:28;100094.63;;;3.57;83.80
5703;BME280;2876;51.738;10.050;2023-03-03T12:20:12;100083.34;;;3.65;83.94
5703;BME280;2876;51.738;10.050;2023-03-03T13:37:48;100045.13;;;4.06;81.98
5703;BME280;2876;51.738;10.050;2023-03-03T13:44:09;100027.50;;;3.66;83.31
5703;BME280;2876;51.738;10.050;2023-03-03T14:10:13;100009.63;;;4.07;81.83
5703;BME280;2876;51.738;10.050;2023-03-03T14:16:58;100006.72;;;3.91;82.98
5703;BME280;2876;51.738;10.050;2023-03-03T14:29:32;99988.38;;;4.26;82.76
5703;BME280;2876;51.738;10.050;2023-03-03T14:35:40;99991.44;;;4.22;83.23
5703;BME280;2876;51.738;10.050;2023-03-03T14:41:42;99990.75;;;4.29;83.05
5703;BME280;2876;51.738;10.050;2023-03-03T14:47:45;99983.59;;;4.40;82.16
5703;BME280;2876;51.738;10.050;2023-03-03T14:53:49;99980.47;;;4.54;82.43
5703;BME280;2876;51.738;10.050;2023-03-03T15:06:11;99971.44;;;4.47;81.22
5703;BME280;2876;51.738;10.050;2023-03-03T15:12:35;99969.41;;;4.12;82.46
5703;BME280;2876;51.738;10.050;2023-03-03T15:25:11;99960.25;;;4.43;81.87
5703;BME280;2876;51.738;10.050;2023-03-03T15:57:00;99943.56;;;3.94;83.29
5703;BME280;2876;51.738;10.050;2023-03-03T16:03:18;99936.31;;;4.06;83.29
5703;BME280;2876;51.738;10.050;2023-03-03T16:09:42;99945.75;;;4.28;82.77
5703;BME280;2876;51.738;10.050;2023-03-03T16:35:32;99956.00;;;3.94;84.76
5703;BME280;2876;51.738;10.050;2023-03-03T16:54:54;99946.28;;;3.46;85.44
5703;BME280;2876;51.738;10.050;2023-03-03T17:01:23;99950.31;;;3.50;85.22
5703;BME280;2876;51.738;10.050;2023-03-03T17:14:22;99954.56;;;3.12;86.50
5703;BME280;2876;51.738;10.050;2023-03-03T17:20:54;99950.22;;;2.92;87.29
5703;BME280;2876;51.738;10.050;2023-03-03T17:27:47;99954.91;;;2.48;88.01
5703;BME280;2876;51.738;10.050;2023-03-03T17:47:07;99962.66;;;1.56;89.37
5703;BME280;2876;51.738;10.050;2023-03-03T17:53:36;99962.38;;;1.27;90.29
5703;BME280;2876;51.738;10.050;2023-03-03T17:59:55;99968.69;;;1.04;91.67
5703;BME280;2876;51.738;10.050;2023-03-03T18:26:02;99973.88;;;0.49;94.92
5703;BME280;2876;51.738;10.050;2023-03-03T18:32:25;99959.97;;;0.47;95.01
5703;BME280;2876;51.738;10.050;2023-03-03T18:38:44;99964.66;;;0.32;96.28
5703;BME280;2876;51.738;10.050;2023-03-03T18:44:48;99965.34;;;0.45;96.06
5703;BME280;2876;51.738;10.050;2023-03-03T18:50:50;99964.53;;;0.34;96.60
5703;BME280;2876;51.738;10.050;2023-03-03T19:02:59;99974.81;;;0.25;96.79
5703;BME280;2876;51.738;10.050;2023-03-03T19:09:05;99976.84;;;0.11;97.25
5703;BME280;2876;51.738;10.050;2023-03-03T19:21:36;99978.84;;;-0.04;97.43
5703;BME280;2876;51.738;10.050;2023-03-03T19:34:38;99977.63;;;-0.11;98.12
5703;BME280;2876;51.738;10.050;2023-03-03T19:47:52;99987.09;;;-0.09;97.47
5703;BME280;2876;51.738;10.050;2023-03-03T19:54:08;99999.19;;;-0.17;98.62
5703;BME280;2876;51.738;10.050;2023-03-03T20:00:40;99991.34;;;0.05;99.48
5703;BME280;2876;51.738;10.050;2023-03-03T20:13:33;100001.97;;;0.61;99.75
5703;BME280;2876;51.738;10.050;2023-03-03T20:26:20;99990.09;;;1.00;99.55
5703;BME280;2876;51.738;10.050;2023-03-03T20:45:45;99983.28;;;1.30;99.37
5703;BME280;2876;51.738;10.050;2023-03-03T20:51:58;99983.97;;;1.43;99.47
5703;BME280;2876;51.738;10.050;2023-03-03T21:11:22;99976.66;;;1.68;98.71
5703;BME280;2876;51.738;10.050;2023-03-03T21:17:29;99969.22;;;1.73;98.39
5703;BME280;2876;51.738;10.050;2023-03-03T21:23:32;99966.69;;;1.71;98.19
5703;BME280;2876;51.738;10.050;2023-03-03T21:29:34;99961.75;;;1.78;97.90
5703;BME280;2876;51.738;10.050;2023-03-03T21:35:56;99961.06;;;1.86;98.19
5703;BME280;2876;51.738;10.050;2023-03-03T21:42:04;99960.38;;;1.84;97.94
5703;BME280;2876;51.738;10.050;2023-03-03T21:48:07;99954.06;;;1.96;97.24
5703;BME280;2876;51.738;10.050;2023-03-03T21:54:09;99945.94;;;1.88;97.15
5703;BME280;2876;51.738;10.050;2023-03-03T22:00:11;99951.28;;;1.97;97.67
5703;BME280;2876;51.738;10.050;2023-03-03T22:06:13;99941.88;;;2.05;97.19
5703;BME280;2876;51.738;10.050;2023-03-03T22:12:15;99942.28;;;2.00;96.53
5703;BME280;2876;51.738;10.050;2023-03-03T22:18:18;99939.34;;;2.03;96.67
5703;BME280;2876;51.738;10.050;2023-03-03T22:24:20;99935.91;;;2.12;96.81
5703;BME280;2876;51.738;10.050;2023-03-03T22:30:22;99932.38;;;2.02;96.34
5703;BME280;2876;51.738;10.050;2023-03-03T22:36:24;99938.22;;;1.96;96.39
5703;BME280;2876;51.738;10.050;2023-03-03T22:42:25;99930.97;;;1.98;96.84
5703;BME280;2876;51.738;10.050;2023-03-03T22:48:28;99921.28;;;2.08;96.48
5703;BME280;2876;51.738;10.050;2023-03-03T22:54:30;99921.56;;;2.05;96.60
5703;BME280;2876;51.738;10.050;2023-03-03T23:00:33;99922.25;;;2.07;96.32
5703;BME280;2876;51.738;10.050;2023-03-03T23:06:35;99911.28;;;2.12;96.21
5703;BME280;2876;51.738;10.050;2023-03-03T23:12:37;99914.47;;;2.06;96.03
5703;BME280;2876;51.738;10.050;2023-03-03T23:18:39;99912.84;;;2.14;96.77
5703;BME280;2876;51.738;10.050;2023-03-03T23:24:42;99905.34;;;2.19;96.40
5703;BME280;2876;51.738;10.050;2023-03-03T23:30:44;99899.31;;;2.17;95.71
5703;BME280;2876;51.738;10.050;2023-03-03T23:36:46;99900.06;;;2.19;96.10
5703;BME280;2876;51.738;10.050;2023-03-03T23:42:48;99898.69;;;2.25;96.07
5703;BME280;2876;51.738;10.050;2023-03-03T23:48:50;99889.06;;;2.24;95.56
5703;BME280;2876;51.738;10.050;2023-03-03T23:54:52;99894.75;;;2.19;95.69
